createdAt,value
2018-06-11T00:02:04.239Z,19.20
2018-06-11T00:04:33.493Z,19.20
2018-06-11T00:07:01.777Z,19.20
2018-06-11T00:09:30.066Z,19.20
2018-06-11T00:14:31.862Z,19.10
2018-06-11T00:17:00.135Z,19.10
2018-06-11T00:19:29.483Z,19.10
2018-06-11T00:21:57.866Z,19.00
2018-06-11T00:24:26.581Z,19.10
2018-06-11T00:26:55.201Z,19.10
2018-06-11T00:29:23.435Z,19.10
2018-06-11T00:31:51.985Z,19.00
2018-06-11T00:34:20.531Z,19.00
2018-06-11T00:36:49.036Z,19.00
2018-06-11T00:41:46.002Z,19.00
2018-06-11T00:44:14.484Z,19.00
2018-06-11T00:46:42.839Z,19.10
2018-06-11T00:49:11.422Z,19.10
2018-06-11T00:51:39.726Z,19.10
2018-06-11T00:54:07.991Z,19.10
2018-06-11T00:56:36.315Z,19.10
2018-06-11T00:59:04.558Z,19.10
2018-06-11T01:01:32.814Z,19.10
2018-06-11T01:04:01.099Z,19.10
2018-06-11T01:06:29.782Z,19.00
2018-06-11T01:08:58.075Z,19.00
2018-06-11T01:11:26.860Z,19.00
2018-06-11T01:13:55.111Z,19.00
2018-06-11T01:16:23.395Z,19.00
2018-06-11T01:18:52.226Z,19.00
2018-06-11T01:21:20.476Z,19.00
2018-06-11T01:23:48.756Z,19.00
2018-06-11T01:26:17.978Z,19.00
2018-06-11T01:28:46.550Z,18.90
2018-06-11T01:31:14.826Z,18.90
2018-06-11T01:33:43.083Z,18.90
2018-06-11T01:36:11.327Z,18.90
2018-06-11T01:38:39.647Z,18.90
2018-06-11T01:41:07.930Z,18.90
2018-06-11T01:43:36.177Z,18.90
2018-06-11T01:46:04.703Z,18.90
2018-06-11T01:48:32.984Z,18.80
2018-06-11T01:53:29.879Z,18.90
2018-06-11T01:55:58.645Z,18.90
2018-06-11T01:58:26.930Z,18.90
2018-06-11T02:00:55.229Z,18.90
2018-06-11T02:03:23.479Z,18.90
2018-06-11T02:05:51.933Z,18.80
2018-06-11T02:08:20.312Z,18.80
2018-06-11T02:10:48.643Z,18.80
2018-06-11T02:13:17.083Z,18.80
2018-06-11T02:20:41.678Z,18.70
2018-06-11T02:23:09.922Z,18.60
2018-06-11T02:25:38.383Z,18.60
2018-06-11T02:28:06.725Z,18.60
2018-06-11T02:30:35.013Z,18.60
2018-06-11T02:35:31.575Z,18.60
2018-06-11T02:37:59.863Z,18.60
2018-06-11T02:40:28.135Z,18.50
2018-06-11T02:42:56.443Z,18.50
2018-06-11T02:45:24.768Z,18.50
2018-06-11T02:47:53.610Z,18.50
2018-06-11T02:50:21.850Z,18.50
2018-06-11T02:52:51.246Z,18.50
2018-06-11T02:55:19.511Z,18.50
2018-06-11T02:57:49.343Z,18.50
2018-06-11T03:00:17.820Z,18.50
2018-06-11T03:02:47.152Z,18.50
2018-06-11T03:05:16.090Z,18.50
2018-06-11T03:07:44.391Z,18.50
2018-06-11T03:10:13.358Z,18.50
2018-06-11T03:12:41.694Z,18.50
2018-06-11T03:20:59.630Z,18.40
2018-06-11T03:23:27.891Z,18.40
2018-06-11T03:25:56.171Z,18.40
2018-06-11T03:28:24.471Z,18.40
2018-06-11T03:30:53.556Z,18.40
2018-06-11T03:33:21.995Z,18.40
2018-06-11T03:35:54.392Z,18.40
2018-06-11T03:40:55.130Z,18.50
2018-06-11T03:43:28.915Z,18.50
2018-06-11T03:45:57.418Z,18.50
2018-06-11T03:48:25.895Z,18.50
2018-06-11T03:50:54.636Z,18.50
2018-06-11T03:53:23.529Z,18.50
2018-06-11T03:55:51.870Z,18.50
2018-06-11T03:58:20.207Z,18.60
2018-06-11T04:00:49.134Z,18.50
2018-06-11T04:03:17.430Z,18.50
2018-06-11T04:05:46.256Z,18.50
2018-06-11T04:08:14.829Z,18.50
2018-06-11T04:10:43.536Z,18.50
2018-06-11T04:13:11.965Z,18.40
2018-06-11T04:15:40.454Z,18.30
2018-06-11T04:18:08.710Z,18.30
2018-06-11T04:20:37.081Z,18.20
2018-06-11T04:23:05.911Z,18.20
2018-06-11T04:25:34.215Z,18.10
2018-06-11T04:28:02.561Z,18.10
2018-06-11T04:30:30.910Z,18.10
2018-06-11T04:32:59.720Z,18.00
2018-06-11T04:35:29.015Z,18.00
2018-06-11T04:37:57.596Z,18.00
2018-06-11T04:40:25.872Z,18.10
2018-06-11T04:42:54.162Z,18.10
2018-06-11T04:45:23.080Z,18.10
2018-06-11T04:47:51.433Z,18.10
2018-06-11T04:50:19.770Z,18.10
2018-06-11T04:52:48.135Z,18.10
2018-06-11T04:55:17.275Z,18.10
2018-06-11T04:57:46.218Z,18.10
2018-06-11T05:00:14.927Z,18.20
2018-06-11T05:02:43.687Z,18.30
2018-06-11T05:05:11.935Z,18.30
2018-06-11T05:07:40.593Z,18.20
2018-06-11T05:10:08.921Z,18.10
2018-06-11T05:12:37.424Z,17.90
2018-06-11T05:15:06.135Z,17.90
2018-06-11T05:17:35.175Z,17.80
2018-06-11T05:20:03.832Z,17.80
2018-06-11T05:22:32.978Z,17.80
2018-06-11T05:25:01.285Z,17.70
2018-06-11T05:27:29.611Z,17.70
2018-06-11T05:29:57.878Z,17.80
2018-06-11T05:32:26.132Z,17.80
2018-06-11T05:34:55.683Z,17.80
2018-06-11T05:37:24.496Z,17.90
2018-06-11T05:42:20.822Z,18.10
2018-06-11T05:44:55.229Z,18.30
2018-06-11T05:49:56.170Z,18.50
2018-06-11T05:52:25.536Z,18.50
2018-06-11T05:54:54.415Z,18.60
2018-06-11T05:57:32.116Z,18.70
2018-06-11T06:00:00.707Z,18.90
2018-06-11T06:02:30.584Z,19.00
2018-06-11T06:05:01.558Z,19.20
2018-06-11T06:10:36.211Z,19.30
2018-06-11T06:13:06.554Z,19.50
2018-06-11T06:15:41.247Z,19.50
2018-06-11T06:18:11.887Z,19.60
2018-06-11T06:26:10.736Z,19.80
2018-06-11T06:31:29.695Z,19.80
2018-06-11T06:42:23.541Z,19.90
2018-06-11T07:09:50.012Z,20.30
2018-06-11T07:23:47.120Z,19.80
2018-06-11T07:37:31.940Z,19.60
2018-06-11T07:45:48.603Z,19.90
2018-06-11T07:56:58.343Z,20.40
2018-06-11T08:02:26.171Z,20.40
2018-06-11T08:04:56.230Z,20.50
2018-06-11T08:07:27.802Z,20.40
2018-06-11T08:10:06.249Z,20.40
2018-06-11T08:12:41.790Z,20.40
2018-06-11T08:15:30.824Z,20.40
2018-06-11T08:21:05.888Z,20.50
2018-06-11T08:23:47.780Z,20.40
2018-06-11T08:32:06.574Z,20.40
2018-06-11T08:40:20.030Z,20.20
2018-06-11T08:48:45.000Z,20.10
2018-06-11T09:14:04.501Z,20.80
2018-06-11T09:30:57.362Z,21.00
2018-06-11T09:33:43.364Z,21.10
2018-06-11T11:53:42.095Z,21.40
2018-06-11T12:31:08.450Z,21.00
2018-06-11T12:33:49.020Z,20.90
2018-06-11T12:36:23.661Z,20.90
2018-06-11T12:39:06.196Z,20.90
2018-06-11T12:41:43.500Z,21.00
2018-06-11T12:47:04.235Z,21.10
2018-06-11T12:52:26.198Z,21.50
2018-06-11T12:55:10.537Z,21.60
2018-06-11T13:00:36.496Z,21.30
2018-06-11T13:08:47.257Z,21.50
2018-06-11T13:11:24.383Z,21.60
2018-06-11T13:14:07.935Z,21.80
2018-06-11T13:16:46.709Z,21.90
2018-06-11T13:24:47.777Z,22.10
2018-06-11T13:31:14.803Z,22.20
2018-06-11T13:33:48.087Z,22.10
2018-06-11T13:36:23.663Z,22.20
2018-06-11T13:38:56.988Z,22.30
2018-06-11T13:44:14.694Z,22.60
2018-06-11T13:46:52.946Z,22.70
2018-06-11T13:49:23.870Z,22.70
2018-06-11T13:54:59.001Z,22.80
2018-06-11T13:57:41.457Z,22.80
2018-06-11T14:00:12.926Z,22.60
2018-06-11T14:02:44.088Z,22.60
2018-06-11T14:05:21.681Z,22.60
2018-06-11T14:08:02.095Z,22.80
2018-06-11T14:10:39.492Z,22.80
2018-06-11T14:16:04.621Z,22.60
2018-06-11T14:21:26.787Z,22.60
2018-06-11T14:24:09.613Z,22.60
2018-06-11T14:29:28.898Z,22.40
2018-06-11T14:37:27.797Z,22.30
2018-06-11T14:40:06.063Z,22.40
2018-06-11T14:45:33.492Z,22.20
2018-06-11T14:50:50.504Z,22.10
2018-06-11T14:53:30.169Z,22.90
2018-06-11T14:56:06.293Z,23.80
2018-06-11T14:58:40.564Z,23.90
2018-06-11T15:03:44.567Z,25.20
2018-06-11T15:06:23.807Z,25.80
2018-06-11T15:09:15.452Z,25.60
2018-06-11T15:11:54.165Z,25.50
2018-06-11T15:14:26.011Z,25.40
2018-06-11T15:17:13.152Z,24.90
2018-06-11T15:19:42.453Z,24.30
2018-06-11T15:22:11.543Z,23.90
2018-06-11T15:24:41.540Z,23.60
2018-06-11T15:27:16.940Z,23.40
2018-06-11T15:29:46.914Z,23.30
2018-06-11T15:32:27.910Z,23.00
2018-06-11T15:35:19.668Z,22.80
2018-06-11T15:38:02.337Z,22.80
2018-06-11T15:40:42.938Z,22.60
2018-06-11T15:43:16.762Z,22.50
2018-06-11T15:45:48.002Z,22.70
2018-06-11T15:48:21.703Z,23.40
2018-06-11T15:53:42.576Z,23.80
2018-06-11T15:56:44.473Z,24.20
2018-06-11T15:59:13.713Z,24.10
2018-06-11T16:01:44.564Z,23.80
2018-06-11T16:07:01.625Z,23.10
2018-06-11T16:09:33.140Z,22.70
2018-06-11T16:12:04.082Z,22.40
2018-06-11T16:17:13.334Z,22.00
2018-06-11T16:19:49.332Z,21.80
2018-06-11T16:22:21.535Z,21.70
2018-06-11T16:25:07.540Z,21.50
2018-06-11T16:27:43.571Z,21.40
2018-06-11T16:30:13.695Z,21.30
2018-06-11T16:32:42.878Z,21.30
2018-06-11T16:35:26.155Z,21.20
2018-06-11T16:37:56.376Z,21.20
2018-06-11T16:43:01.675Z,20.80
2018-06-11T16:45:42.926Z,20.70
2018-06-11T16:50:59.420Z,20.60
2018-06-11T16:56:21.911Z,20.50
2018-06-11T17:01:57.879Z,20.30
2018-06-11T17:04:34.550Z,20.20
2018-06-11T17:07:20.399Z,20.20
2018-06-11T17:12:30.859Z,20.10
2018-06-11T17:15:29.729Z,20.00
2018-06-11T17:17:59.891Z,19.90
2018-06-11T17:20:35.808Z,19.90
2018-06-11T17:23:07.298Z,19.90
2018-06-11T17:28:29.984Z,19.90
2018-06-11T17:31:02.991Z,19.80
2018-06-11T17:36:20.440Z,19.60
2018-06-11T17:38:51.002Z,19.60
2018-06-11T17:41:28.851Z,19.50
2018-06-11T17:43:59.026Z,19.50
2018-06-11T17:46:42.890Z,19.50
2018-06-11T17:49:14.496Z,19.40
2018-06-11T17:51:50.453Z,19.40
2018-06-11T17:54:21.935Z,19.30
2018-06-11T17:59:21.581Z,19.20
2018-06-11T18:01:51.894Z,19.10
2018-06-11T18:04:21.713Z,19.10
2018-06-11T18:07:01.552Z,19.00
2018-06-11T18:12:05.802Z,18.90
2018-06-11T18:14:42.839Z,19.00
2018-06-11T18:17:21.761Z,18.90
2018-06-11T18:22:27.297Z,18.80
2018-06-11T18:24:56.927Z,18.80
2018-06-11T18:27:28.355Z,18.70
2018-06-11T18:30:00.119Z,18.60
2018-06-11T18:39:21.675Z,18.50
2018-06-11T18:47:59.007Z,18.40
2018-06-11T18:50:29.397Z,18.30
2018-06-11T18:53:00.814Z,18.30
2018-06-11T18:55:30.648Z,18.20
2018-06-11T18:58:00.131Z,18.30
2018-06-11T19:00:29.915Z,18.20
2018-06-11T19:02:58.763Z,18.20
2018-06-11T19:09:33.298Z,18.20
2018-06-11T19:12:06.764Z,18.10
2018-06-11T19:14:37.539Z,18.00
2018-06-11T19:17:06.535Z,17.90
2018-06-11T19:19:35.643Z,18.00
2018-06-11T19:24:39.287Z,17.90
2018-06-11T19:27:14.721Z,17.80
2018-06-11T19:29:47.073Z,17.80
2018-06-11T19:32:16.243Z,17.80
2018-06-11T19:34:53.879Z,17.80
2018-06-11T19:37:22.814Z,17.80
2018-06-11T19:39:52.047Z,17.70
2018-06-11T19:42:21.526Z,17.70
2018-06-11T19:44:50.760Z,17.70
2018-06-11T19:47:22.737Z,17.60
2018-06-11T19:52:19.966Z,17.60
2018-06-11T19:54:52.224Z,17.50
2018-06-11T19:57:21.169Z,17.50
2018-06-11T20:02:24.604Z,17.40
2018-06-11T20:05:01.349Z,17.40
2018-06-11T20:07:33.308Z,17.40
2018-06-11T20:10:02.376Z,17.30
2018-06-11T20:12:31.683Z,17.30
2018-06-11T20:15:11.529Z,17.30
2018-06-11T20:17:40.299Z,17.30
2018-06-11T20:20:08.796Z,17.30
2018-06-11T20:22:38.349Z,17.30
2018-06-11T20:25:07.379Z,17.20
2018-06-11T20:27:36.724Z,17.20
2018-06-11T20:30:07.426Z,17.20
2018-06-11T20:32:35.682Z,17.20
2018-06-11T20:35:06.590Z,17.20
2018-06-11T20:37:35.811Z,17.20
2018-06-11T20:40:06.547Z,17.20
2018-06-11T20:42:36.698Z,17.10
2018-06-11T20:45:05.617Z,17.10
2018-06-11T20:47:37.477Z,17.10
2018-06-11T20:50:07.082Z,17.10
2018-06-11T20:52:36.358Z,17.10
2018-06-11T20:55:04.719Z,17.10
2018-06-11T20:57:33.266Z,17.10
2018-06-11T21:00:07.751Z,17.00
2018-06-11T21:02:36.575Z,17.00
2018-06-11T21:05:15.961Z,17.00
2018-06-11T21:07:45.000Z,17.00
2018-06-11T21:10:13.950Z,17.00
2018-06-11T21:12:42.192Z,17.00
2018-06-11T21:15:10.928Z,17.00
2018-06-11T21:17:44.379Z,17.00
2018-06-11T21:20:13.317Z,17.00
2018-06-11T21:22:43.028Z,17.00
2018-06-11T21:25:11.444Z,17.00
2018-06-11T21:27:44.867Z,16.90
2018-06-11T21:30:14.278Z,16.90
2018-06-11T21:32:45.291Z,16.90
2018-06-11T21:35:33.495Z,16.90
2018-06-11T21:38:01.866Z,16.90
2018-06-11T21:40:31.987Z,16.90
2018-06-11T21:43:00.471Z,16.90
2018-06-11T21:45:28.855Z,16.90
2018-06-11T21:47:58.489Z,16.90
2018-06-11T21:50:27.117Z,17.00
2018-06-11T21:52:56.172Z,16.90
2018-06-11T21:55:25.061Z,17.00
2018-06-11T21:57:55.488Z,17.00
2018-06-11T22:00:24.304Z,16.90
2018-06-11T22:02:52.841Z,16.90
2018-06-11T22:05:21.658Z,16.90
2018-06-11T22:07:50.046Z,16.90
2018-06-11T22:10:18.664Z,16.90
2018-06-11T22:12:49.500Z,16.90
2018-06-11T22:15:18.070Z,16.90
2018-06-11T22:17:46.376Z,16.90
2018-06-11T22:20:14.740Z,16.90
2018-06-11T22:22:44.299Z,16.90
2018-06-11T22:25:14.463Z,16.90
2018-06-11T22:27:42.868Z,16.90
2018-06-11T22:30:11.683Z,16.90
2018-06-11T22:32:39.967Z,16.90
2018-06-11T22:35:09.007Z,16.90
2018-06-11T22:37:37.409Z,16.80
2018-06-11T22:40:06.398Z,16.80
2018-06-11T22:42:35.792Z,16.80
2018-06-11T22:45:05.659Z,16.80
2018-06-11T22:47:34.032Z,16.80
2018-06-11T22:50:02.617Z,16.80
2018-06-11T22:52:31.390Z,16.80
2018-06-11T22:55:01.092Z,16.80
2018-06-11T22:57:32.026Z,16.70
2018-06-11T23:00:01.167Z,16.70
2018-06-11T23:02:29.439Z,16.70
2018-06-11T23:04:58.398Z,16.60
2018-06-11T23:07:27.683Z,16.60
2018-06-11T23:09:56.224Z,16.60
2018-06-11T23:15:55.121Z,16.60
2018-06-11T23:18:23.905Z,16.60
2018-06-11T23:20:53.144Z,16.60
2018-06-11T23:23:22.073Z,16.60
2018-06-11T23:25:51.040Z,16.60
2018-06-11T23:28:20.476Z,16.60
2018-06-11T23:30:49.147Z,16.60
2018-06-11T23:33:17.531Z,16.60
2018-06-11T23:35:45.825Z,16.60
2018-06-11T23:38:14.491Z,16.60
2018-06-11T23:40:44.063Z,16.60
2018-06-11T23:43:13.229Z,16.60
2018-06-11T23:45:41.460Z,16.60
2018-06-11T23:48:09.818Z,16.60
2018-06-11T23:50:38.297Z,16.60
2018-06-11T23:53:06.724Z,16.60
2018-06-11T23:55:35.422Z,16.60
2018-06-11T23:58:04.398Z,16.60
